YPPH/PER METAR and TAF weather

Enter ICAO airport designator
Station Type Date Time Source
YPPH METAR 2019/02/21 15:30 UTC NOAA

YPPH 211530Z 24007KT 9999 OVC022 20/15 Q1014 NOSIG


Station Type Date Time Source
YPPH Decoded METAR 2019/02/21 15:30 UTC NOAA

Belmont Perth Airport , Australia (YPPH) 31-56S 115-57E 29M
Feb 21, 2019 - 10:30 AM EST / 2019.02.21 1530 UTC
Wind: from the WSW (240 degrees) at 8 MPH (7 KT):0
Visibility: greater than 7 mile(s):0
Sky conditions: overcast
Temperature: 68 F (20 C)
Dew Point: 59 F (15 C)
Relative Humidity: 72%
Pressure (altimeter): 29.94 in. Hg (1014 hPa)
ob: YPPH 211530Z 24007KT 9999 OVC022 20/15 Q1014 NOSIG
cycle: 15

Station Type Date Time Source
YPPH TAF 2019/02/21 12:33 UTC NOAA

TAF YPPH 211102Z 2112/2218 25012KT 9999 SCT020 BKN030
FM211400 22006KT 9999 BKN020
FM220100 25010KT CAVOK
FM221400 18005KT CAVOK


Example: see airport list